Overview Statistics Trail Chart Weather Telemetry Raw packets
 

This is the latest recevied weather packets stored in our database for station/object IN3MWE-10. If no packets are shown the sender has not sent any weather packets the latest 10 day(s).

<< 24 25 26 27 28 29 30 >>
Time Temp. Humidity Pressure Rain* Wind** Luminosity Snow
1788091518 40.56° C 21% 978.1 hPa - - - -
1788090618 38.33° C 25% 978.3 hPa - - - -
1788089718 40° C 24% 978.5 hPa - - - -
1788088818 38.33° C 26% 978.5 hPa - - - -
1788087918 37.78° C 28% 978.8 hPa - - - -
1788087018 36.67° C 30% 979 hPa - - - -
1788086117 36.67° C 29% 979.2 hPa - - - -
1788085217 33.89° C 36% 979.6 hPa - - - -
1788084317 34.44° C 33% 979.8 hPa - - - -
1788083417 33.89° C 35% 980.1 hPa - - - -
1788082517 32.78° C 36% 980.3 hPa - - - -
1788081617 31.67° C 40% 980.6 hPa - - - -
1788080717 31.67° C 41% 980.7 hPa - - - -
1788079817 28.89° C 47% 981 hPa - - - -
1788078916 30° C 46% 981 hPa - - - -
1788078016 28.89° C 51% 981.3 hPa - - - -
1788077116 28.33° C 56% 981.4 hPa - - - -
1788076216 27.22° C 58% 981.5 hPa - - - -
1788075316 25.56° C 67% 981.5 hPa - - - -
1788074416 22.22° C 84% 981.6 hPa - - - -
1788073516 20.56° C 88% 981.6 hPa - - - -
1788072615 20° C 91% 981.6 hPa - - - -
1788071715 20° C 88% 981.6 hPa - - - -
1788070815 20° C 95% 981.6 hPa - - - -
1788069915 20° C 94% 981.8 hPa - - - -

* Rain since midnight (hover to see other rain measurements)
** Current wind speed in m/s (hover to see current wind gust speed)